createdAt,value
2023-05-11T00:02:14.120Z,8.70
2023-05-11T00:05:17.477Z,8.20
2023-05-11T00:08:21.946Z,8.50
2023-05-11T00:11:25.064Z,9.23
2023-05-11T00:14:28.143Z,8.87
2023-05-11T00:17:31.280Z,10.10
2023-05-11T00:20:34.477Z,8.83
2023-05-11T00:23:38.974Z,9.50
2023-05-11T00:26:42.059Z,8.00
2023-05-11T00:29:45.130Z,8.60
2023-05-11T00:32:49.097Z,8.93
2023-05-11T00:35:52.255Z,8.57
2023-05-11T00:38:56.814Z,8.13
2023-05-11T00:42:00.861Z,8.10
2023-05-11T00:45:04.081Z,8.40
2023-05-11T00:48:07.622Z,7.47
2023-05-11T00:51:12.263Z,8.27
2023-05-11T00:54:17.170Z,9.67
2023-05-11T00:57:21.353Z,8.53
2023-05-11T01:00:24.592Z,7.37
2023-05-11T01:03:27.921Z,8.67
2023-05-11T01:06:42.508Z,10.10
2023-05-11T01:10:01.120Z,7.20
2023-05-11T01:13:14.645Z,7.30
2023-05-11T01:16:21.599Z,6.77
2023-05-11T01:19:38.066Z,6.93
2023-05-11T01:22:54.848Z,7.70
2023-05-11T01:26:12.600Z,6.67
2023-05-11T01:29:48.598Z,6.07
2023-05-11T01:32:56.128Z,5.40
2023-05-11T01:36:05.281Z,6.40
2023-05-11T01:39:11.642Z,6.27
2023-05-11T01:42:16.241Z,6.00
2023-05-11T01:45:21.504Z,6.53
2023-05-11T01:48:29.228Z,5.80
2023-05-11T01:51:37.124Z,8.73
2023-05-11T01:54:41.279Z,7.07
2023-05-11T01:57:46.693Z,6.20
2023-05-11T02:00:50.025Z,6.10
2023-05-11T02:03:55.522Z,5.90
2023-05-11T02:07:01.192Z,5.27
2023-05-11T02:10:04.960Z,5.30
2023-05-11T02:13:09.954Z,5.97
2023-05-11T02:16:16.014Z,8.40
2023-05-11T02:19:22.266Z,7.47
2023-05-11T02:22:26.561Z,4.77
2023-05-11T02:25:31.162Z,6.63
2023-05-11T02:28:34.311Z,5.07
2023-05-11T02:31:43.716Z,6.27
2023-05-11T02:34:57.796Z,5.40
2023-05-11T02:38:03.946Z,6.30
2023-05-11T02:41:12.787Z,5.33
2023-05-11T02:44:18.668Z,4.63
2023-05-11T02:47:23.854Z,4.20
2023-05-11T02:50:30.284Z,5.43
2023-05-11T02:53:34.663Z,4.90
2023-05-11T02:56:39.193Z,5.63
2023-05-11T02:59:42.547Z,6.40
2023-05-11T03:02:45.709Z,6.73
2023-05-11T03:05:53.017Z,5.80
2023-05-11T03:08:56.228Z,7.60
2023-05-11T03:12:00.960Z,4.97
2023-05-11T03:15:05.087Z,5.23
2023-05-11T03:18:08.812Z,6.63
2023-05-11T03:21:15.945Z,4.47
2023-05-11T03:24:19.433Z,4.80
2023-05-11T03:27:23.298Z,5.73
2023-05-11T03:30:27.509Z,9.30
2023-05-11T03:33:30.650Z,5.43
2023-05-11T03:36:35.257Z,5.40
2023-05-11T03:39:39.931Z,5.30
2023-05-11T03:42:44.690Z,4.67
2023-05-11T03:45:49.279Z,5.20
2023-05-11T03:48:54.470Z,5.53
2023-05-11T03:51:59.320Z,4.00
2023-05-11T03:55:02.471Z,6.80
2023-05-11T03:58:08.698Z,4.80
2023-05-11T04:01:14.095Z,4.73
2023-05-11T04:04:17.182Z,4.47
2023-05-11T04:07:21.794Z,3.53
2023-05-11T04:10:24.890Z,4.27
2023-05-11T04:13:27.958Z,4.60
2023-05-11T04:16:31.146Z,4.77
2023-05-11T04:19:34.205Z,4.60
2023-05-11T04:22:38.696Z,4.50
2023-05-11T04:25:41.781Z,6.23
2023-05-11T04:28:44.825Z,4.10
2023-05-11T04:31:47.957Z,4.00
2023-05-11T04:34:51.087Z,4.07
2023-05-11T04:37:55.573Z,5.53
2023-05-11T04:40:58.774Z,3.53
2023-05-11T04:44:01.789Z,6.27
2023-05-11T04:47:04.919Z,3.80
2023-05-11T04:50:08.712Z,5.37
2023-05-11T04:53:13.128Z,4.43
2023-05-11T04:56:16.224Z,3.40
2023-05-11T04:59:19.459Z,6.00
2023-05-11T05:02:22.596Z,6.20
2023-05-11T05:05:25.915Z,4.07
2023-05-11T05:08:30.360Z,5.33
2023-05-11T05:11:33.545Z,5.20
2023-05-11T05:14:36.632Z,5.90
2023-05-11T05:17:39.928Z,5.40
2023-05-11T05:20:43.135Z,4.40
2023-05-11T05:23:47.620Z,5.97
2023-05-11T05:26:50.783Z,4.20
2023-05-11T05:29:54.041Z,5.43
2023-05-11T05:32:57.232Z,4.10
2023-05-11T05:36:00.628Z,6.83
2023-05-11T05:39:09.845Z,3.30
2023-05-11T05:42:13.007Z,4.27
2023-05-11T05:45:16.097Z,4.43
2023-05-11T05:48:19.177Z,4.17
2023-05-11T05:51:22.628Z,3.83
2023-05-11T05:54:27.104Z,4.20
2023-05-11T05:57:31.497Z,4.90
2023-05-11T06:00:34.649Z,5.33
2023-05-11T06:03:38.780Z,4.80
2023-05-11T06:06:42.059Z,5.50
2023-05-11T06:09:46.568Z,4.67
2023-05-11T06:12:49.629Z,4.30
2023-05-11T06:15:52.756Z,4.03
2023-05-11T06:18:56.252Z,4.10
2023-05-11T06:21:59.414Z,5.73
2023-05-11T06:25:03.910Z,4.30
2023-05-11T06:28:08.704Z,4.93
2023-05-11T06:31:11.850Z,5.87
2023-05-11T06:34:14.973Z,4.60
2023-05-11T06:37:20.738Z,7.03
2023-05-11T06:40:25.385Z,8.57
2023-05-11T06:43:28.536Z,6.10
2023-05-11T06:46:31.701Z,6.13
2023-05-11T06:49:34.986Z,7.33
2023-05-11T06:52:38.086Z,7.30
2023-05-11T06:55:42.584Z,5.80
2023-05-11T06:58:45.738Z,5.67
2023-05-11T07:01:48.805Z,6.10
2023-05-11T07:04:51.916Z,4.73
2023-05-11T07:07:55.088Z,4.57
2023-05-11T07:10:59.544Z,6.90
2023-05-11T07:14:02.695Z,5.13
2023-05-11T07:17:06.069Z,5.70
2023-05-11T07:20:10.232Z,5.03
2023-05-11T07:23:13.412Z,10.60
2023-05-11T07:26:17.873Z,5.40
2023-05-11T07:29:21.134Z,5.63
2023-05-11T07:32:24.343Z,6.37
2023-05-11T07:35:27.480Z,4.40
2023-05-11T07:38:30.694Z,4.50
2023-05-11T07:41:35.348Z,9.10
2023-05-11T07:44:38.486Z,5.13
2023-05-11T07:47:41.673Z,5.73
2023-05-11T07:50:44.953Z,8.27
2023-05-11T07:53:48.140Z,5.03
2023-05-11T07:56:52.700Z,4.73
2023-05-11T07:59:55.809Z,5.80
2023-05-11T08:02:59.268Z,4.90
2023-05-11T08:06:03.326Z,5.13
2023-05-11T08:09:06.897Z,5.07
2023-05-11T08:12:12.282Z,5.73
2023-05-11T08:15:15.424Z,7.60
2023-05-11T08:18:18.602Z,7.03
2023-05-11T08:21:21.751Z,5.03
2023-05-11T08:24:24.915Z,5.20
2023-05-11T08:27:29.465Z,6.57
2023-05-11T08:30:32.480Z,5.13
2023-05-11T08:33:38.198Z,5.90
2023-05-11T08:36:42.057Z,6.10
2023-05-11T08:39:47.951Z,5.53
2023-05-11T08:42:56.343Z,5.83
2023-05-11T08:46:04.232Z,7.20
2023-05-11T08:49:08.835Z,8.73
2023-05-11T08:52:13.411Z,5.67
2023-05-11T08:55:17.190Z,5.50
2023-05-11T08:58:22.476Z,5.80
2023-05-11T09:01:29.562Z,6.43
2023-05-11T09:04:33.602Z,6.30
2023-05-11T09:07:40.339Z,5.60
2023-05-11T09:10:44.308Z,6.00
2023-05-11T09:13:49.005Z,7.03
2023-05-11T09:16:52.052Z,6.43
2023-05-11T09:20:00.417Z,7.73
2023-05-11T09:23:03.632Z,6.00
2023-05-11T09:26:15.172Z,8.10
2023-05-11T09:29:22.340Z,6.60
2023-05-11T09:32:25.619Z,5.50
2023-05-11T09:35:30.203Z,7.07
2023-05-11T09:38:33.468Z,6.97
2023-05-11T09:41:36.595Z,6.73
2023-05-11T09:44:41.773Z,6.60
2023-05-11T09:47:46.338Z,7.37
2023-05-11T09:50:52.272Z,7.30
2023-05-11T09:53:56.088Z,8.00
2023-05-11T09:57:00.405Z,7.67
2023-05-11T10:00:05.991Z,6.80
2023-05-11T10:03:09.659Z,7.30
2023-05-11T10:06:12.916Z,14.90
2023-05-11T10:09:18.532Z,7.10
2023-05-11T10:12:23.892Z,7.70
2023-05-11T10:15:30.525Z,7.63
2023-05-11T10:18:34.379Z,7.47
2023-05-11T10:21:38.563Z,8.80
2023-05-11T10:24:42.657Z,9.80
2023-05-11T10:27:46.162Z,9.47
2023-05-11T10:30:50.784Z,10.60
2023-05-11T10:33:54.657Z,9.70
2023-05-11T10:37:00.640Z,10.67
2023-05-11T10:40:04.699Z,9.70
2023-05-11T10:43:47.594Z,12.10
2023-05-11T10:47:10.786Z,12.30
2023-05-11T10:50:23.032Z,16.07
2023-05-11T10:53:41.779Z,12.53
2023-05-11T10:57:07.947Z,14.30
2023-05-11T11:00:50.875Z,12.97
2023-05-11T11:04:02.049Z,12.57
2023-05-11T11:07:07.836Z,15.90
2023-05-11T11:10:13.056Z,20.67
2023-05-11T11:13:18.265Z,30.30
2023-05-11T11:16:23.695Z,29.07
2023-05-11T11:19:49.292Z,28.30
2023-05-11T11:22:52.436Z,25.77
2023-05-11T11:25:55.587Z,18.93
2023-05-11T11:29:13.958Z,20.77
2023-05-11T11:32:31.547Z,18.40
2023-05-11T11:35:49.086Z,21.93
2023-05-11T11:39:01.406Z,22.77
2023-05-11T11:42:06.782Z,21.03
2023-05-11T11:45:34.442Z,17.47
2023-05-11T11:48:41.610Z,17.70
2023-05-11T11:51:49.961Z,16.50
2023-05-11T11:54:53.140Z,15.73
2023-05-11T11:57:56.286Z,14.13
2023-05-11T12:00:59.830Z,13.00
2023-05-11T12:04:33.085Z,10.03
2023-05-11T12:07:42.499Z,10.40
2023-05-11T12:10:48.195Z,9.63
2023-05-11T12:13:51.771Z,9.97
2023-05-11T12:17:16.362Z,10.13
2023-05-11T12:20:21.280Z,9.73
2023-05-11T12:23:25.840Z,8.10
2023-05-11T12:26:30.427Z,8.60
2023-05-11T12:29:33.744Z,8.27
2023-05-11T12:32:36.935Z,9.60
2023-05-11T12:35:40.445Z,9.40
2023-05-11T12:38:48.942Z,10.73
2023-05-11T12:41:54.597Z,8.90
2023-05-11T12:44:58.032Z,8.70
2023-05-11T12:48:01.827Z,8.10
2023-05-11T12:51:05.376Z,8.73
2023-05-11T12:54:10.096Z,8.03
2023-05-11T12:57:25.051Z,8.60
2023-05-11T13:00:28.204Z,8.30
2023-05-11T13:03:34.106Z,10.43
2023-05-11T13:06:37.412Z,7.87
2023-05-11T13:09:42.654Z,8.20
2023-05-11T13:12:52.809Z,7.90
2023-05-11T13:15:56.298Z,7.67
2023-05-11T13:19:00.673Z,7.50
2023-05-11T13:22:04.042Z,8.23
2023-05-11T13:25:10.131Z,7.63
2023-05-11T13:28:14.614Z,7.87
2023-05-11T13:31:17.916Z,9.03
2023-05-11T13:34:21.827Z,8.07
2023-05-11T13:37:24.970Z,7.73
2023-05-11T13:40:29.705Z,8.70
2023-05-11T13:43:32.936Z,8.37
2023-05-11T13:46:36.717Z,8.90
2023-05-11T13:49:39.990Z,8.30
2023-05-11T13:52:43.414Z,9.43
2023-05-11T13:55:47.932Z,9.80
2023-05-11T13:58:50.999Z,8.07
2023-05-11T14:01:54.211Z,9.47
2023-05-11T14:04:57.460Z,9.83
2023-05-11T14:08:00.716Z,7.80
2023-05-11T14:11:05.607Z,7.40
2023-05-11T14:14:08.771Z,7.03
2023-05-11T14:17:13.495Z,7.23
2023-05-11T14:20:16.993Z,8.17
2023-05-11T14:23:20.124Z,6.50
2023-05-11T14:26:24.614Z,6.00
2023-05-11T14:29:27.998Z,5.93
2023-05-11T14:32:31.458Z,6.53
2023-05-11T14:35:36.037Z,7.10
2023-05-11T14:38:40.978Z,6.40
2023-05-11T14:41:45.512Z,6.87
2023-05-11T14:44:48.639Z,8.77
2023-05-11T14:47:52.130Z,7.00
2023-05-11T14:50:55.263Z,6.40
2023-05-11T14:53:58.378Z,6.60
2023-05-11T14:57:02.927Z,6.90
2023-05-11T15:00:07.261Z,7.30
2023-05-11T15:03:10.998Z,7.03
2023-05-11T15:06:21.186Z,5.67
2023-05-11T15:09:24.337Z,8.83
2023-05-11T15:12:29.027Z,6.67
2023-05-11T15:15:32.296Z,6.77
2023-05-11T15:18:36.053Z,7.33
2023-05-11T15:21:39.228Z,6.57
2023-05-11T15:24:42.391Z,5.80
2023-05-11T15:27:46.929Z,6.43
2023-05-11T15:30:49.990Z,7.50
2023-05-11T15:33:53.346Z,8.83
2023-05-11T15:36:58.673Z,7.20
2023-05-11T15:40:01.767Z,6.20
2023-05-11T15:43:06.661Z,6.97
2023-05-11T15:46:09.849Z,6.37
2023-05-11T15:49:12.973Z,5.80
2023-05-11T15:52:16.196Z,5.87
2023-05-11T15:55:19.418Z,6.77
2023-05-11T15:58:24.158Z,5.63
2023-05-11T16:01:27.313Z,6.50
2023-05-11T16:04:30.410Z,7.93
2023-05-11T16:07:33.559Z,7.43
2023-05-11T16:10:36.739Z,8.00
2023-05-11T16:13:41.269Z,7.63
2023-05-11T16:16:44.506Z,7.60
2023-05-11T16:19:47.654Z,7.40
2023-05-11T16:22:50.720Z,8.43
2023-05-11T16:25:53.841Z,11.53
2023-05-11T16:28:58.307Z,8.60
2023-05-11T16:32:01.636Z,7.73
2023-05-11T16:35:05.247Z,6.50
2023-05-11T16:38:08.381Z,7.77
2023-05-11T16:41:11.925Z,9.27
2023-05-11T16:44:16.436Z,9.47
2023-05-11T16:47:19.530Z,7.90
2023-05-11T16:50:23.218Z,6.93
2023-05-11T16:53:27.284Z,8.80
2023-05-11T16:56:33.290Z,8.13
2023-05-11T16:59:37.757Z,7.90
2023-05-11T17:02:41.409Z,8.90
2023-05-11T17:05:45.484Z,11.10
2023-05-11T17:08:48.900Z,7.73
2023-05-11T17:11:52.238Z,7.20
2023-05-11T17:14:57.402Z,7.30
2023-05-11T17:18:00.582Z,7.13
2023-05-11T17:21:03.758Z,8.50
2023-05-11T17:24:07.183Z,7.70
2023-05-11T17:27:10.382Z,8.13
2023-05-11T17:30:15.468Z,8.27
2023-05-11T17:33:18.772Z,7.67
2023-05-11T17:36:22.327Z,7.70
2023-05-11T17:39:25.424Z,10.47
2023-05-11T17:42:28.773Z,7.83
2023-05-11T17:45:33.459Z,7.63
2023-05-11T17:48:36.958Z,8.27
2023-05-11T17:51:40.139Z,9.23
2023-05-11T17:54:43.410Z,8.80
2023-05-11T17:57:46.961Z,9.57
2023-05-11T18:00:51.722Z,7.33
2023-05-11T18:03:55.144Z,8.17
2023-05-11T18:06:58.312Z,7.87
2023-05-11T18:10:04.027Z,7.83
2023-05-11T18:13:07.631Z,7.80
2023-05-11T18:16:12.178Z,11.63
2023-05-11T18:19:15.480Z,7.10
2023-05-11T18:22:18.703Z,7.80
2023-05-11T18:25:22.465Z,8.53
2023-05-11T18:28:26.028Z,7.20
2023-05-11T18:31:31.080Z,7.20
2023-05-11T18:34:34.905Z,9.27
2023-05-11T18:37:38.112Z,7.10
2023-05-11T18:40:41.663Z,7.23
2023-05-11T18:43:45.264Z,7.27
2023-05-11T18:46:49.943Z,8.10
2023-05-11T18:49:53.423Z,7.67
2023-05-11T18:52:57.140Z,7.10
2023-05-11T18:56:00.407Z,12.40
2023-05-11T18:59:03.606Z,8.13
2023-05-11T19:02:08.286Z,6.93
2023-05-11T19:05:11.863Z,8.17
2023-05-11T19:08:18.661Z,7.27
2023-05-11T19:11:22.927Z,7.30
2023-05-11T19:14:26.275Z,7.57
2023-05-11T19:17:31.027Z,8.33
2023-05-11T19:20:34.722Z,7.80
2023-05-11T19:23:38.601Z,7.80
2023-05-11T19:26:45.390Z,7.50
2023-05-11T19:29:53.302Z,8.90
2023-05-11T19:33:00.369Z,8.27
2023-05-11T19:36:03.957Z,9.07
2023-05-11T19:39:07.924Z,7.57
2023-05-11T19:42:11.020Z,7.73
2023-05-11T19:45:16.081Z,7.73
2023-05-11T19:48:21.632Z,7.37
2023-05-11T19:51:24.727Z,10.67
2023-05-11T19:54:28.052Z,9.47
2023-05-11T19:57:33.342Z,9.60
2023-05-11T20:00:37.954Z,9.07
2023-05-11T20:03:42.578Z,7.40
2023-05-11T20:06:45.709Z,7.73
2023-05-11T20:09:49.003Z,8.20
2023-05-11T20:12:55.115Z,6.90
2023-05-11T20:15:58.814Z,8.73
2023-05-11T20:19:03.437Z,7.43
2023-05-11T20:22:07.173Z,6.97
2023-05-11T20:25:17.795Z,7.27
2023-05-11T20:28:22.201Z,6.87
2023-05-11T20:31:27.406Z,7.70
2023-05-11T20:34:31.971Z,10.10
2023-05-11T20:37:35.399Z,7.00
2023-05-11T20:40:38.467Z,6.20
2023-05-11T20:43:41.612Z,7.40
2023-05-11T20:46:45.036Z,6.50
2023-05-11T20:49:52.677Z,7.23
2023-05-11T20:52:56.122Z,7.93
2023-05-11T20:56:01.058Z,7.67
2023-05-11T20:59:05.657Z,6.83
2023-05-11T21:02:08.776Z,6.90
2023-05-11T21:05:13.289Z,6.40
2023-05-11T21:08:16.423Z,6.93
2023-05-11T21:11:19.475Z,8.30
2023-05-11T21:14:22.762Z,6.57
2023-05-11T21:17:25.990Z,7.37
2023-05-11T21:20:30.627Z,7.00
2023-05-11T21:23:34.301Z,6.60
2023-05-11T21:26:37.443Z,6.10
2023-05-11T21:29:41.148Z,6.80
2023-05-11T21:32:44.465Z,5.10
2023-05-11T21:35:49.213Z,8.43
2023-05-11T21:38:52.288Z,6.00
2023-05-11T21:41:55.488Z,5.97
2023-05-11T21:44:58.567Z,5.13
2023-05-11T21:48:02.428Z,5.37
2023-05-11T21:51:08.270Z,5.77
2023-05-11T21:54:11.420Z,5.23
2023-05-11T21:57:14.527Z,5.30
2023-05-11T22:00:19.414Z,5.20
2023-05-11T22:03:22.818Z,5.20
2023-05-11T22:06:27.353Z,5.00
2023-05-11T22:09:32.650Z,4.43
2023-05-11T22:12:36.373Z,4.47
2023-05-11T22:15:39.475Z,4.67
2023-05-11T22:18:42.548Z,4.03
2023-05-11T22:21:47.248Z,4.20
2023-05-11T22:24:50.289Z,4.30
2023-05-11T22:27:53.358Z,4.80
2023-05-11T22:30:56.500Z,4.10
2023-05-11T22:33:59.756Z,4.40
2023-05-11T22:37:05.228Z,3.60
2023-05-11T22:40:09.622Z,3.80
2023-05-11T22:43:12.742Z,3.50
2023-05-11T22:46:15.942Z,3.70
2023-05-11T22:49:19.190Z,3.07
2023-05-11T22:52:23.790Z,2.83
2023-05-11T22:55:26.880Z,2.83
2023-05-11T22:58:30.533Z,2.33
2023-05-11T23:01:34.177Z,3.10
2023-05-11T23:04:37.387Z,2.80
2023-05-11T23:07:41.867Z,2.60
2023-05-11T23:10:44.961Z,2.80
2023-05-11T23:13:50.860Z,1.87
2023-05-11T23:16:54.007Z,2.00
2023-05-11T23:19:57.466Z,2.27
2023-05-11T23:23:01.925Z,2.80
2023-05-11T23:26:05.097Z,1.80
2023-05-11T23:29:08.598Z,2.53
2023-05-11T23:32:11.763Z,3.17
2023-05-11T23:35:14.983Z,2.07
2023-05-11T23:38:19.477Z,1.93
2023-05-11T23:41:22.674Z,2.47
2023-05-11T23:44:25.877Z,3.20
2023-05-11T23:47:29.086Z,1.43
2023-05-11T23:50:32.170Z,1.63
2023-05-11T23:53:36.686Z,1.40
2023-05-11T23:56:39.773Z,1.43
2023-05-11T23:59:42.890Z,1.33
